createdAt,value
2019-06-01T00:01:44.815Z,12.95
2019-06-01T00:04:13.076Z,12.90
2019-06-01T00:06:42.702Z,12.81
2019-06-01T00:09:11.135Z,12.78
2019-06-01T00:11:39.461Z,12.74
2019-06-01T00:14:07.831Z,12.66
2019-06-01T00:16:36.141Z,12.56
2019-06-01T00:19:04.436Z,12.54
2019-06-01T00:21:32.718Z,12.53
2019-06-01T00:24:01.025Z,12.52
2019-06-01T00:26:29.337Z,12.47
2019-06-01T00:28:57.638Z,12.41
2019-06-01T00:31:25.950Z,12.34
2019-06-01T00:33:54.242Z,12.28
2019-06-01T00:36:22.574Z,12.30
2019-06-01T00:38:52.013Z,12.29
2019-06-01T00:41:21.287Z,12.30
2019-06-01T00:43:50.464Z,12.30
2019-06-01T00:46:18.929Z,12.25
2019-06-01T00:48:47.874Z,12.21
2019-06-01T00:51:16.148Z,12.12
2019-06-01T00:53:45.365Z,11.74
2019-06-01T00:56:13.746Z,12.07
2019-06-01T00:58:43.543Z,12.03
2019-06-01T01:01:12.836Z,12.00
2019-06-01T01:03:41.152Z,11.87
2019-06-01T01:06:09.517Z,11.84
2019-06-01T01:08:37.899Z,11.84
2019-06-01T01:11:06.182Z,11.82
2019-06-01T01:13:34.570Z,11.82
2019-06-01T01:16:02.863Z,11.79
2019-06-01T01:18:31.858Z,11.80
2019-06-01T01:21:00.191Z,11.79
2019-06-01T01:23:28.516Z,11.71
2019-06-01T01:25:56.842Z,11.63
2019-06-01T01:28:25.133Z,11.60
2019-06-01T01:31:08.350Z,11.59
2019-06-01T01:33:23.467Z,11.57
2019-06-01T01:35:52.598Z,11.54
2019-06-01T01:38:21.848Z,11.46
2019-06-01T01:40:50.221Z,11.40
2019-06-01T01:43:18.567Z,11.33
2019-06-01T01:45:46.855Z,11.32
2019-06-01T01:48:15.209Z,11.36
2019-06-01T01:50:43.457Z,11.35
2019-06-01T01:53:11.837Z,11.34
2019-06-01T01:55:40.155Z,11.36
2019-06-01T01:58:08.540Z,11.36
2019-06-01T02:00:39.404Z,11.35
2019-06-01T02:03:08.140Z,11.31
2019-06-01T02:05:36.582Z,11.31
2019-06-01T02:08:05.940Z,11.31
2019-06-01T02:10:34.387Z,11.22
2019-06-01T02:13:02.781Z,11.24
2019-06-01T02:15:31.159Z,11.25
2019-06-01T02:18:00.589Z,11.24
2019-06-01T02:20:29.114Z,11.22
2019-06-01T02:22:58.829Z,11.20
2019-06-01T02:25:27.454Z,11.14
2019-06-01T02:27:57.200Z,11.08
2019-06-01T02:30:25.773Z,11.09
2019-06-01T02:32:56.007Z,11.08
2019-06-01T02:35:24.178Z,11.09
2019-06-01T02:37:54.493Z,11.10
2019-06-01T02:40:24.245Z,11.09
2019-06-01T02:42:52.630Z,11.09
2019-06-01T02:45:21.157Z,11.04
2019-06-01T02:47:49.449Z,10.93
2019-06-01T02:50:17.856Z,10.83
2019-06-01T02:52:46.198Z,10.78
2019-06-01T02:55:17.379Z,10.81
2019-06-01T02:57:45.899Z,10.79
2019-06-01T03:00:16.930Z,10.76
2019-06-01T03:02:45.880Z,10.80
2019-06-01T03:05:14.547Z,10.82
2019-06-01T03:07:43.996Z,10.82
2019-06-01T03:10:12.900Z,10.75
2019-06-01T03:12:43.635Z,10.76
2019-06-01T03:15:12.506Z,10.67
2019-06-01T03:17:43.985Z,10.70
2019-06-01T03:20:14.204Z,10.62
2019-06-01T03:22:43.272Z,10.56
2019-06-01T03:25:12.347Z,10.51
2019-06-01T03:27:42.390Z,10.51
2019-06-01T03:30:15.288Z,10.54
2019-06-01T03:32:42.225Z,10.55
2019-06-01T03:35:10.547Z,10.59
2019-06-01T03:37:38.915Z,10.60
2019-06-01T03:40:15.776Z,10.61
2019-06-01T03:42:38.289Z,10.61
2019-06-01T03:45:07.647Z,10.61
2019-06-01T03:47:36.111Z,10.66
2019-06-01T03:50:06.915Z,10.68
2019-06-01T03:52:35.375Z,10.70
2019-06-01T03:55:05.856Z,10.73
2019-06-01T03:57:34.410Z,10.74
2019-06-01T04:00:03.348Z,10.77
2019-06-01T04:02:33.424Z,10.77
2019-06-01T04:05:03.542Z,10.79
2019-06-01T04:07:32.083Z,10.82
2019-06-01T04:10:01.635Z,10.80
2019-06-01T04:12:30.304Z,10.77
2019-06-01T04:14:58.632Z,10.81
2019-06-01T04:17:27.009Z,10.90
2019-06-01T04:19:55.299Z,10.97
2019-06-01T04:22:23.740Z,11.05
2019-06-01T04:24:52.026Z,11.09
2019-06-01T04:27:20.390Z,11.14
2019-06-01T04:29:48.933Z,11.21
2019-06-01T04:32:17.519Z,11.23
2019-06-01T04:34:45.927Z,11.33
2019-06-01T04:37:14.211Z,11.42
2019-06-01T04:39:42.549Z,11.50
2019-06-01T04:42:11.873Z,11.59
2019-06-01T04:44:40.237Z,11.65
2019-06-01T04:47:09.269Z,11.75
2019-06-01T04:49:38.778Z,11.88
2019-06-01T04:52:07.078Z,11.99
2019-06-01T04:54:35.385Z,12.09
2019-06-01T04:57:04.767Z,12.20
2019-06-01T04:59:33.111Z,12.31
2019-06-01T05:02:01.439Z,12.43
2019-06-01T05:04:29.743Z,12.53
2019-06-01T05:06:58.057Z,12.64
2019-06-01T05:09:26.375Z,12.74
2019-06-01T05:11:54.713Z,12.59
2019-06-01T05:14:23.021Z,12.97
2019-06-01T05:16:51.359Z,13.10
2019-06-01T05:19:19.986Z,13.23
2019-06-01T05:21:48.291Z,13.34
2019-06-01T05:24:17.286Z,13.43
2019-06-01T05:26:45.707Z,13.56
2019-06-01T05:29:14.008Z,13.68
2019-06-01T05:31:42.430Z,13.83
2019-06-01T05:34:11.819Z,13.93
2019-06-01T05:36:40.277Z,13.98
2019-06-01T05:39:08.651Z,14.16
2019-06-01T05:41:36.989Z,14.31
2019-06-01T05:44:05.363Z,14.43
2019-06-01T05:46:33.736Z,14.62
2019-06-01T05:49:02.148Z,14.76
2019-06-01T05:51:30.538Z,14.84
2019-06-01T05:53:58.902Z,14.99
2019-06-01T05:56:27.289Z,15.06
2019-06-01T05:58:55.592Z,15.22
2019-06-01T06:01:23.884Z,15.32
2019-06-01T06:03:52.202Z,15.46
2019-06-01T06:06:20.530Z,15.58
2019-06-01T06:08:48.849Z,15.71
2019-06-01T06:11:17.146Z,15.81
2019-06-01T06:13:45.467Z,15.93
2019-06-01T06:16:13.889Z,16.06
2019-06-01T06:18:42.154Z,16.20
2019-06-01T06:21:10.494Z,16.31
2019-06-01T06:23:38.839Z,16.02
2019-06-01T06:26:07.173Z,16.53
2019-06-01T06:28:35.538Z,16.68
2019-06-01T06:31:03.913Z,16.80
2019-06-01T06:33:32.208Z,16.98
2019-06-01T06:36:00.648Z,17.10
2019-06-01T06:38:28.981Z,17.25
2019-06-01T06:40:57.348Z,17.37
2019-06-01T06:43:32.654Z,17.49
2019-06-01T06:45:55.687Z,17.61
2019-06-01T06:48:25.200Z,17.75
2019-06-01T06:50:53.597Z,17.88
2019-06-01T06:53:29.823Z,17.98
2019-06-01T06:55:52.016Z,18.10
2019-06-01T06:58:21.011Z,18.21
2019-06-01T07:00:49.716Z,18.30
2019-06-01T07:03:18.925Z,18.41
2019-06-01T07:05:47.395Z,18.52
2019-06-01T07:08:17.595Z,18.63
2019-06-01T07:10:46.038Z,18.77
2019-06-01T07:13:14.509Z,18.90
2019-06-01T07:15:42.873Z,18.99
2019-06-01T07:18:11.247Z,19.13
2019-06-01T07:20:39.575Z,19.19
2019-06-01T07:23:07.857Z,19.31
2019-06-01T07:25:36.223Z,19.41
2019-06-01T07:28:04.978Z,19.54
2019-06-01T07:30:49.476Z,19.63
2019-06-01T07:33:04.588Z,19.71
2019-06-01T07:35:32.899Z,19.85
2019-06-01T07:38:01.317Z,19.96
2019-06-01T07:40:29.680Z,20.02
2019-06-01T07:42:57.974Z,20.11
2019-06-01T07:45:26.956Z,20.18
2019-06-01T07:47:55.354Z,20.29
2019-06-01T07:50:23.984Z,20.40
2019-06-01T07:52:52.330Z,20.57
2019-06-01T07:55:21.409Z,20.60
2019-06-01T07:57:49.926Z,20.64
2019-06-01T08:00:18.351Z,20.80
2019-06-01T08:02:46.828Z,20.95
2019-06-01T08:05:15.195Z,21.05
2019-06-01T08:07:43.478Z,21.15
2019-06-01T08:10:12.079Z,21.27
2019-06-01T08:12:40.405Z,21.34
2019-06-01T08:15:08.893Z,21.46
2019-06-01T08:17:37.276Z,21.53
2019-06-01T08:20:08.722Z,21.65
2019-06-01T08:22:37.017Z,21.75
2019-06-01T08:25:06.934Z,21.73
2019-06-01T08:27:35.225Z,21.77
2019-06-01T08:30:05.598Z,21.67
2019-06-01T08:32:34.005Z,21.77
2019-06-01T08:35:08.651Z,21.81
2019-06-01T08:37:33.581Z,21.94
2019-06-01T08:40:02.055Z,21.94
2019-06-01T08:42:31.545Z,22.06
2019-06-01T08:45:00.015Z,22.19
2019-06-01T08:47:28.324Z,22.35
2019-06-01T08:49:56.655Z,22.45
2019-06-01T08:52:25.976Z,22.57
2019-06-01T08:54:54.343Z,22.72
2019-06-01T08:57:24.100Z,22.84
2019-06-01T08:59:52.445Z,22.97
2019-06-01T09:02:20.752Z,23.07
2019-06-01T09:04:49.052Z,23.16
2019-06-01T09:07:17.513Z,23.12
2019-06-01T09:09:45.879Z,23.28
2019-06-01T09:12:14.325Z,23.31
2019-06-01T09:14:42.608Z,23.34
2019-06-01T09:17:11.102Z,23.38
2019-06-01T09:19:39.392Z,23.50
2019-06-01T09:24:36.196Z,23.75
2019-06-01T09:27:04.892Z,23.81
2019-06-01T09:29:34.075Z,23.92
2019-06-01T09:32:02.522Z,24.05
2019-06-01T09:34:30.796Z,24.17
2019-06-01T09:36:59.095Z,24.23
2019-06-01T09:39:28.994Z,24.44
2019-06-01T09:41:57.418Z,24.57
2019-06-01T09:44:26.861Z,24.68
2019-06-01T09:46:55.228Z,24.66
2019-06-01T09:49:23.584Z,24.78
2019-06-01T09:51:51.893Z,24.83
2019-06-01T09:54:20.237Z,24.88
2019-06-01T09:56:48.547Z,25.15
2019-06-01T09:59:16.864Z,25.49
2019-06-01T10:01:45.214Z,25.83
2019-06-01T10:04:13.579Z,26.28
2019-06-01T10:06:41.899Z,26.77
2019-06-01T10:09:10.259Z,26.99
2019-06-01T10:11:38.664Z,27.50
2019-06-01T10:14:07.092Z,27.95
2019-06-01T10:16:36.781Z,29.44
2019-06-01T10:19:05.276Z,31.27
2019-06-01T10:21:33.964Z,32.65
2019-06-01T10:24:02.388Z,33.72
2019-06-01T10:26:31.339Z,34.86
2019-06-01T10:28:59.797Z,34.81
2019-06-01T10:31:28.112Z,35.82
2019-06-01T10:33:56.497Z,36.10
2019-06-01T10:36:24.796Z,35.88
2019-06-01T10:38:53.175Z,36.27
2019-06-01T10:41:21.477Z,36.63
2019-06-01T10:43:49.764Z,36.99
2019-06-01T10:46:18.077Z,36.66
2019-06-01T10:48:46.380Z,37.09
2019-06-01T10:51:14.706Z,36.56
2019-06-01T10:53:43.834Z,38.34
2019-06-01T10:56:12.277Z,39.87
2019-06-01T10:58:57.637Z,39.39
2019-06-01T11:01:10.559Z,38.80
2019-06-01T11:03:38.859Z,38.27
2019-06-01T11:06:07.221Z,37.67
2019-06-01T11:08:37.024Z,37.61
2019-06-01T11:11:05.516Z,40.72
2019-06-01T11:13:35.020Z,42.76
2019-06-01T11:16:03.455Z,44.63
2019-06-01T11:18:33.128Z,45.92
2019-06-01T11:21:01.591Z,46.35
2019-06-01T11:23:29.915Z,46.51
2019-06-01T11:25:58.233Z,46.20
2019-06-01T11:28:26.516Z,46.39
2019-06-01T11:30:54.822Z,46.76
2019-06-01T11:33:23.207Z,45.54
2019-06-01T11:35:51.622Z,46.44
2019-06-01T11:38:19.930Z,47.09
2019-06-01T11:40:48.227Z,48.25
2019-06-01T11:43:16.532Z,49.24
2019-06-01T11:45:45.249Z,49.16
2019-06-01T11:48:13.689Z,48.61
2019-06-01T11:50:43.120Z,47.96
2019-06-01T11:53:11.473Z,48.93
2019-06-01T11:55:39.783Z,49.48
2019-06-01T11:58:08.253Z,49.97
2019-06-01T12:00:37.522Z,45.89
2019-06-01T12:05:26.423Z,48.60
2019-06-01T12:07:54.702Z,46.60
2019-06-01T12:10:22.996Z,45.62
2019-06-01T12:12:51.462Z,47.90
2019-06-01T12:15:20.313Z,45.67
2019-06-01T12:17:48.639Z,46.84
2019-06-01T12:20:17.264Z,46.80
2019-06-01T12:22:45.555Z,45.86
2019-06-01T12:25:14.098Z,46.45
2019-06-01T12:27:44.052Z,46.46
2019-06-01T12:30:12.502Z,46.32
2019-06-01T12:32:41.918Z,47.53
2019-06-01T12:35:10.986Z,47.73
2019-06-01T12:37:58.328Z,47.34
2019-06-01T12:40:09.840Z,48.65
2019-06-01T12:42:39.606Z,48.08
2019-06-01T12:45:08.858Z,46.49
2019-06-01T12:47:37.182Z,47.90
2019-06-01T12:50:07.246Z,48.07
2019-06-01T12:52:35.612Z,47.75
2019-06-01T12:55:04.919Z,47.75
2019-06-01T12:57:33.201Z,48.07
2019-06-01T13:00:01.589Z,49.13
2019-06-01T13:02:29.925Z,50.16
2019-06-01T13:04:58.247Z,49.56
2019-06-01T13:07:26.591Z,50.12
2019-06-01T13:09:54.883Z,49.69
2019-06-01T13:12:23.272Z,50.09
2019-06-01T13:14:52.239Z,50.18
2019-06-01T13:17:20.902Z,48.81
2019-06-01T13:19:49.624Z,48.58
2019-06-01T13:22:18.020Z,48.26
2019-06-01T13:24:47.755Z,48.13
2019-06-01T13:27:16.166Z,48.80
2019-06-01T13:29:45.715Z,49.03
2019-06-01T13:32:14.321Z,49.28
2019-06-01T13:34:42.762Z,49.52
2019-06-01T13:37:11.153Z,49.35
2019-06-01T13:39:39.435Z,49.32
2019-06-01T13:42:07.837Z,49.36
2019-06-01T13:44:36.126Z,49.06
2019-06-01T13:47:04.517Z,49.02
2019-06-01T13:49:32.898Z,48.82
2019-06-01T13:52:01.213Z,48.14
2019-06-01T13:54:29.523Z,48.02
2019-06-01T13:56:57.918Z,47.60
2019-06-01T13:59:26.287Z,46.98
2019-06-01T14:01:55.394Z,46.93
2019-06-01T14:04:23.749Z,46.84
2019-06-01T14:06:53.133Z,47.16
2019-06-01T14:09:22.143Z,46.97
2019-06-01T14:11:51.435Z,46.90
2019-06-01T14:14:19.820Z,46.11
2019-06-01T14:16:49.418Z,46.40
2019-06-01T14:19:17.919Z,46.20
2019-06-01T14:21:47.631Z,46.07
2019-06-01T14:24:16.214Z,45.86
2019-06-01T14:26:45.945Z,45.97
2019-06-01T14:29:14.375Z,45.86
2019-06-01T14:31:44.356Z,44.52
2019-06-01T14:34:12.640Z,44.05
2019-06-01T14:36:41.123Z,43.57
2019-06-01T14:39:09.490Z,43.59
2019-06-01T14:41:37.818Z,43.80
2019-06-01T14:44:06.278Z,43.22
2019-06-01T14:46:34.657Z,42.36
2019-06-01T14:49:02.986Z,42.16
2019-06-01T14:51:31.282Z,41.92
2019-06-01T14:53:59.614Z,40.71
2019-06-01T14:56:27.916Z,39.83
2019-06-01T14:58:56.230Z,40.16
2019-06-01T15:01:32.344Z,38.08
2019-06-01T15:03:54.782Z,38.31
2019-06-01T15:06:23.186Z,37.68
2019-06-01T15:09:13.082Z,38.33
2019-06-01T15:11:21.636Z,38.62
2019-06-01T15:13:50.325Z,38.74
2019-06-01T15:16:18.736Z,38.62
2019-06-01T15:18:47.124Z,39.01
2019-06-01T15:21:15.495Z,38.68
2019-06-01T15:23:43.843Z,38.83
2019-06-01T15:26:12.220Z,38.38
2019-06-01T15:28:40.668Z,39.03
2019-06-01T15:31:09.015Z,39.29
2019-06-01T15:33:37.304Z,39.30
2019-06-01T15:36:05.689Z,39.66
2019-06-01T15:38:33.981Z,39.55
2019-06-01T15:41:02.440Z,39.38
2019-06-01T15:43:30.798Z,39.49
2019-06-01T15:45:59.829Z,39.39
2019-06-01T15:48:28.253Z,39.30
2019-06-01T15:51:02.479Z,39.59
2019-06-01T15:53:26.651Z,39.33
2019-06-01T15:55:55.091Z,39.34
2019-06-01T15:58:23.502Z,39.04
2019-06-01T16:00:52.746Z,38.90
2019-06-01T16:03:21.259Z,38.65
2019-06-01T16:05:49.547Z,38.17
2019-06-01T16:08:18.042Z,37.58
2019-06-01T16:10:46.429Z,37.62
2019-06-01T16:13:14.742Z,37.70
2019-06-01T16:15:43.126Z,37.39
2019-06-01T16:18:11.476Z,37.46
2019-06-01T16:20:39.880Z,36.43
2019-06-01T16:23:08.187Z,36.31
2019-06-01T16:25:36.497Z,36.61
2019-06-01T16:28:05.725Z,35.69
2019-06-01T16:30:34.229Z,35.70
2019-06-01T16:33:02.943Z,35.52
2019-06-01T16:35:31.358Z,35.83
2019-06-01T16:38:02.306Z,35.77
2019-06-01T16:40:29.848Z,35.59
2019-06-01T16:42:59.355Z,34.92
2019-06-01T16:45:27.822Z,34.85
2019-06-01T16:47:57.332Z,34.71
2019-06-01T16:50:25.803Z,34.55
2019-06-01T16:52:54.191Z,34.24
2019-06-01T16:55:22.588Z,34.52
2019-06-01T16:57:50.978Z,34.56
2019-06-01T17:00:19.768Z,34.30
2019-06-01T17:02:48.078Z,33.73
2019-06-01T17:05:16.486Z,33.24
2019-06-01T17:07:44.807Z,33.15
2019-06-01T17:10:25.823Z,33.51
2019-06-01T17:12:44.595Z,33.60
2019-06-01T17:15:13.059Z,33.72
2019-06-01T17:17:41.529Z,33.47
2019-06-01T17:20:32.653Z,33.31
2019-06-01T17:23:02.927Z,33.36
2019-06-01T17:25:31.025Z,33.15
2019-06-01T17:28:00.152Z,32.60
2019-06-01T17:30:28.611Z,32.73
2019-06-01T17:32:58.120Z,32.40
2019-06-01T17:35:26.619Z,31.96
2019-06-01T17:37:54.944Z,31.92
2019-06-01T17:40:36.571Z,31.91
2019-06-01T17:42:53.499Z,31.69
2019-06-01T17:45:21.834Z,31.25
2019-06-01T17:47:50.161Z,31.60
2019-06-01T17:50:20.272Z,31.42
2019-06-01T17:52:48.698Z,31.25
2019-06-01T17:55:35.375Z,30.98
2019-06-01T17:58:05.451Z,30.91
2019-06-01T18:00:34.034Z,30.62
2019-06-01T18:03:03.486Z,30.62
2019-06-01T18:05:32.146Z,30.40
2019-06-01T18:08:01.759Z,30.29
2019-06-01T18:10:30.163Z,30.15
2019-06-01T18:12:58.560Z,29.99
2019-06-01T18:15:27.249Z,29.87
2019-06-01T18:17:55.634Z,29.75
2019-06-01T18:20:23.956Z,29.61
2019-06-01T18:22:52.322Z,29.44
2019-06-01T18:25:23.211Z,29.13
2019-06-01T18:27:51.628Z,28.95
2019-06-01T18:30:20.237Z,28.76
2019-06-01T18:32:48.785Z,28.59
2019-06-01T18:35:19.676Z,28.39
2019-06-01T18:37:47.295Z,28.17
2019-06-01T18:40:17.063Z,27.92
2019-06-01T18:42:47.123Z,27.73
2019-06-01T18:45:16.363Z,27.46
2019-06-01T18:47:44.954Z,27.23
2019-06-01T18:50:16.162Z,26.97
2019-06-01T18:52:43.901Z,26.71
2019-06-01T18:55:12.716Z,26.41
2019-06-01T18:57:42.208Z,26.12
2019-06-01T19:00:13.845Z,25.83
2019-06-01T19:02:42.284Z,25.59
2019-06-01T19:05:11.148Z,25.34
2019-06-01T19:07:39.430Z,25.10
2019-06-01T19:10:09.475Z,24.86
2019-06-01T19:12:37.897Z,24.65
2019-06-01T19:15:23.217Z,24.43
2019-06-01T19:17:39.541Z,24.18
2019-06-01T19:20:08.697Z,23.95
2019-06-01T19:22:37.144Z,23.74
2019-06-01T19:25:06.676Z,23.51
2019-06-01T19:27:35.249Z,23.27
2019-06-01T19:30:04.809Z,23.05
2019-06-01T19:32:33.211Z,22.94
2019-06-01T19:35:01.681Z,22.61
2019-06-01T19:37:30.055Z,22.51
2019-06-01T19:39:58.739Z,22.30
2019-06-01T19:42:27.142Z,22.21
2019-06-01T19:44:55.449Z,22.03
2019-06-01T19:47:23.918Z,21.95
2019-06-01T19:49:52.234Z,21.77
2019-06-01T19:52:20.636Z,21.63
2019-06-01T19:54:49.115Z,21.34
2019-06-01T19:57:21.416Z,21.34
2019-06-01T19:59:47.648Z,21.20
2019-06-01T20:02:29.308Z,21.08
2019-06-01T20:04:46.230Z,20.93
2019-06-01T20:07:15.136Z,20.78
2019-06-01T20:09:43.525Z,20.65
2019-06-01T20:12:16.352Z,20.52
2019-06-01T20:14:41.950Z,20.41
2019-06-01T20:17:11.737Z,20.26
2019-06-01T20:19:40.077Z,20.05
2019-06-01T20:22:08.540Z,19.94
2019-06-01T20:24:36.832Z,19.81
2019-06-01T20:27:05.221Z,19.68
2019-06-01T20:29:33.612Z,19.56
2019-06-01T20:32:01.955Z,19.48
2019-06-01T20:34:30.492Z,19.36
2019-06-01T20:36:58.803Z,19.28
2019-06-01T20:39:27.237Z,19.17
2019-06-01T20:41:55.537Z,19.08
2019-06-01T20:44:23.931Z,18.99
2019-06-01T20:46:52.275Z,18.89
2019-06-01T20:49:20.758Z,18.81
2019-06-01T20:51:49.112Z,18.74
2019-06-01T20:54:17.437Z,18.63
2019-06-01T20:56:45.752Z,18.56
2019-06-01T20:59:17.190Z,18.44
2019-06-01T21:01:44.238Z,17.99
2019-06-01T21:04:14.069Z,17.72
2019-06-01T21:06:42.460Z,17.66
2019-06-01T21:09:10.858Z,17.66
2019-06-01T21:11:39.226Z,17.62
2019-06-01T21:14:07.628Z,17.58
2019-06-01T21:16:35.999Z,17.55
2019-06-01T21:19:04.552Z,17.52
2019-06-01T21:21:32.903Z,17.46
2019-06-01T21:24:01.215Z,17.41
2019-06-01T21:26:32.593Z,17.44
2019-06-01T21:29:00.977Z,17.43
2019-06-01T21:31:29.347Z,17.41
2019-06-01T21:33:57.737Z,17.36
2019-06-01T21:36:26.084Z,17.29
2019-06-01T21:38:54.383Z,17.24
2019-06-01T21:41:23.728Z,17.15
2019-06-01T21:43:52.272Z,17.07
2019-06-01T21:46:21.705Z,17.01
2019-06-01T21:48:50.034Z,16.98
2019-06-01T21:51:18.369Z,16.95
2019-06-01T21:53:46.736Z,16.88
2019-06-01T21:56:18.322Z,16.79
2019-06-01T21:58:45.204Z,16.74
2019-06-01T22:01:13.751Z,16.70
2019-06-01T22:03:42.086Z,16.58
2019-06-01T22:06:10.404Z,16.50
2019-06-01T22:08:38.714Z,16.34
2019-06-01T22:11:07.015Z,16.18
2019-06-01T22:13:35.324Z,16.17
2019-06-01T22:16:03.737Z,16.12
2019-06-01T22:18:32.101Z,16.05
2019-06-01T22:21:00.430Z,16.00
2019-06-01T22:23:28.768Z,15.94
2019-06-01T22:25:57.106Z,15.91
2019-06-01T22:28:26.337Z,15.85
2019-06-01T22:30:54.770Z,15.80
2019-06-01T22:33:23.197Z,15.73
2019-06-01T22:35:52.473Z,15.67
2019-06-01T22:38:21.636Z,15.62
2019-06-01T22:40:50.083Z,15.56
2019-06-01T22:43:35.152Z,15.50
2019-06-01T22:45:48.669Z,15.40
2019-06-01T22:48:16.987Z,15.34
2019-06-01T22:50:45.308Z,15.29
2019-06-01T22:53:13.601Z,15.22
2019-06-01T22:55:41.992Z,15.05
2019-06-01T22:58:10.390Z,15.01
2019-06-01T23:00:38.709Z,14.86
2019-06-01T23:03:07.192Z,14.76
2019-06-01T23:05:35.495Z,14.68
2019-06-01T23:08:03.883Z,14.30
2019-06-01T23:10:35.444Z,14.58
2019-06-01T23:13:02.221Z,14.48
2019-06-01T23:15:31.907Z,14.46
2019-06-01T23:18:00.263Z,14.46
2019-06-01T23:20:29.914Z,14.45
2019-06-01T23:22:58.458Z,14.46
2019-06-01T23:25:26.817Z,14.43
2019-06-01T23:27:55.132Z,14.37
2019-06-01T23:30:24.287Z,14.37
2019-06-01T23:32:52.591Z,14.35
2019-06-01T23:35:20.921Z,14.30
2019-06-01T23:37:50.380Z,14.30
2019-06-01T23:40:18.915Z,14.31
2019-06-01T23:42:47.299Z,14.29
2019-06-01T23:45:17.040Z,14.26
2019-06-01T23:47:45.460Z,14.23
2019-06-01T23:50:13.844Z,14.21
2019-06-01T23:52:42.150Z,14.18
2019-06-01T23:55:10.583Z,14.14
2019-06-01T23:57:38.905Z,13.98
